Time;durP1;ratioP1;P1;durP2;ratioP2;P2;SDS_P1;SDS_P2;PMS_P1;PMS_P2;Temp;Humidity;BMP_temperature;BMP_pressure;BME280_temperature;BME280_humidity;BME280_pressure;Samples;Min_cycle;Max_cycle;Signal;HPM_P1;HPM_P2
2022/11/12 00:00:18;;;;;;;6.70;4.20;;;;;;;;;;108617;1268;22548;-29
2022/11/12 00:03:11;;;;;;;7.40;4.30;;;;;;;;;;108622;1266;22537;-28
2022/11/12 00:05:46;;;;;;;7.00;4.10;;;;;;;;;;108612;1264;23831;-28
2022/11/12 00:08:18;;;;;;;6.60;3.90;;;;;;;;;;108640;1266;22540;-29
2022/11/12 00:10:51;;;;;;;6.40;3.90;;;;;;;;;;108632;1266;22565;-28
2022/11/12 00:13:23;;;;;;;6.30;4.00;;;;;;;;;;108630;1265;22547;-28
2022/11/12 00:15:56;;;;;;;7.00;4.20;;;;;;;;;;108615;1266;22602;-28
2022/11/12 00:18:28;;;;;;;7.10;4.60;;;;;;;;;;108615;1265;22677;-29
2022/11/12 00:21:00;;;;;;;6.40;4.30;;;;;;;;;;108626;1264;22570;-29
2022/11/12 00:23:33;;;;;;;6.70;4.20;;;;;;;;;;108610;1266;22555;-28
2022/11/12 00:26:07;;;;;;;7.00;4.10;;;;;;;;;;108604;1259;22516;-28
2022/11/12 00:28:43;;;;;;;6.50;4.10;;;;;;;;;;108632;1266;22543;-28
2022/11/12 00:31:16;;;;;;;6.90;4.20;;;;;;;;;;108660;1265;22721;-28
2022/11/12 00:33:49;;;;;;;6.20;4.00;;;;;;;;;;108657;1263;22480;-28
2022/11/12 00:36:22;;;;;;;6.90;4.10;;;;;;;;;;108573;1265;22533;-28
2022/11/12 00:38:55;;;;;;;;;;;;;;;;;;108631;1265;22577;-29
2022/11/12 00:41:27;;;;;;;6.00;3.80;;;;;;;;;;108658;1265;22554;-28
2022/11/12 00:44:02;;;;;;;5.80;4.00;;;;;;;;;;108658;1263;25260;-28
2022/11/12 00:46:35;;;;;;;6.30;4.10;;;;;;;;;;108644;1263;22561;-28
2022/11/12 00:49:07;;;;;;;6.20;3.50;;;;;;;;;;108778;1266;25212;-29
2022/11/12 00:51:43;;;;;;;6.30;4.00;;;;;;;;;;108459;1266;423725;-28
2022/11/12 00:54:16;;;;;;;5.90;3.90;;;;;;;;;;108775;1266;22946;-29
2022/11/12 00:56:50;;;;;;;6.10;3.80;;;;;;;;;;108735;1269;22550;-29
2022/11/12 00:59:23;;;;;;;5.90;4.10;;;;;;;;;;108635;1265;25946;-28
2022/11/12 01:01:55;;;;;;;6.20;3.60;;;;;;;;;;108657;1262;22551;-28
2022/11/12 01:04:30;;;;;;;5.80;3.80;;;;;;;;;;108647;1264;25399;-28
2022/11/12 01:07:03;;;;;;;5.90;3.80;;;;;;;;;;108616;1265;22572;-29
2022/11/12 01:09:36;;;;;;;6.50;3.80;;;;;;;;;;108799;1264;22540;-28
2022/11/12 01:12:09;;;;;;;6.10;3.40;;;;;;;;;;108615;1266;23992;-29
2022/11/12 01:14:44;;;;;;;5.80;4.00;;;;;;;;;;108777;1265;22567;-28
2022/11/12 01:17:18;;;;;;;6.00;3.90;;;;;;;;;;108774;1258;22583;-28
2022/11/12 01:19:49;;;;;;;;;;;;;;;;;;108632;1265;22536;-28
2022/11/12 01:22:22;;;;;;;5.90;3.60;;;;;;;;;;108636;1265;22504;-28
2022/11/12 01:24:56;;;;;;;5.90;4.00;;;;;;;;;;108636;1265;22625;-28
2022/11/12 01:27:30;;;;;;;5.80;3.60;;;;;;;;;;108619;1261;22549;-28
2022/11/12 01:30:03;;;;;;;5.50;3.70;;;;;;;;;;108787;1266;22480;-28
2022/11/12 01:32:38;;;;;;;5.60;3.90;;;;;;;;;;108773;1268;22568;-28
2022/11/12 01:35:12;;;;;;;6.00;3.90;;;;;;;;;;108763;1269;25249;-28
2022/11/12 01:37:45;;;;;;;5.90;3.90;;;;;;;;;;108766;1266;22662;-29
2022/11/12 01:40:22;;;;;;;6.30;3.80;;;;;;;;;;108783;1269;22618;-28
2022/11/12 01:42:56;;;;;;;6.00;3.90;;;;;;;;;;108799;1269;22586;-28
2022/11/12 01:45:31;;;;;;;6.40;3.90;;;;;;;;;;108797;1266;22568;-29
2022/11/12 01:48:04;;;;;;;6.50;4.20;;;;;;;;;;108699;1266;22674;-28
2022/11/12 01:50:42;;;;;;;6.50;3.80;;;;;;;;;;108776;1263;22546;-29
2022/11/12 01:53:16;;;;;;;6.10;4.00;;;;;;;;;;108786;1266;22531;-28
2022/11/12 01:55:49;;;;;;;6.40;3.90;;;;;;;;;;108739;1269;23842;-28
2022/11/12 01:58:26;;;;;;;6.40;4.20;;;;;;;;;;108740;1266;23916;-28
2022/11/12 02:01:01;;;;;;;6.00;3.80;;;;;;;;;;108792;1269;23857;-28
2022/11/12 02:03:33;;;;;;;6.50;4.00;;;;;;;;;;108744;1264;25392;-28
2022/11/12 02:06:11;;;;;;;5.50;3.90;;;;;;;;;;108793;1264;25474;-28
2022/11/12 02:08:45;;;;;;;5.70;3.70;;;;;;;;;;108728;1263;25261;-28
2022/11/12 02:11:20;;;;;;;5.40;3.40;;;;;;;;;;108773;1264;22713;-29
2022/11/12 02:14:00;;;;;;;6.10;3.90;;;;;;;;;;108760;1266;22575;-29
2022/11/12 02:16:37;;;;;;;6.20;4.00;;;;;;;;;;108783;1263;22573;-29
2022/11/12 02:19:15;;;;;;;5.70;3.70;;;;;;;;;;108739;1263;22547;-29
2022/11/12 02:21:48;;;;;;;6.00;3.80;;;;;;;;;;108812;1266;22582;-29
2022/11/12 02:24:37;;;;;;;6.20;3.80;;;;;;;;;;108813;1269;25344;-28
2022/11/12 02:27:11;;;;;;;6.20;3.70;;;;;;;;;;108799;1261;22547;-28
2022/11/12 02:29:46;;;;;;;5.90;3.60;;;;;;;;;;108719;1266;22507;-29
2022/11/12 02:32:18;;;;;;;5.70;3.50;;;;;;;;;;108806;1264;25255;-29
2022/11/12 02:34:51;;;;;;;5.70;3.70;;;;;;;;;;108778;1269;22580;-29
2022/11/12 02:37:23;;;;;;;5.90;3.70;;;;;;;;;;108768;1266;23850;-29
2022/11/12 02:39:56;;;;;;;5.30;3.80;;;;;;;;;;108700;1269;22586;-29
2022/11/12 02:42:28;;;;;;;5.90;4.00;;;;;;;;;;108658;1265;25933;-28
2022/11/12 02:45:00;;;;;;;5.40;3.60;;;;;;;;;;108636;1265;22611;-28
2022/11/12 02:47:33;;;;;;;5.70;3.60;;;;;;;;;;108645;1265;24187;-28
2022/11/12 02:50:07;;;;;;;6.30;3.70;;;;;;;;;;108665;1265;22975;-28
2022/11/12 02:52:40;;;;;;;5.80;3.70;;;;;;;;;;108786;1269;22557;-29
2022/11/12 02:55:14;;;;;;;6.30;3.50;;;;;;;;;;108781;1269;22538;-29
2022/11/12 02:57:46;;;;;;;5.40;3.60;;;;;;;;;;108807;1264;22552;-29
2022/11/12 03:00:20;;;;;;;6.20;3.50;;;;;;;;;;108678;1262;22579;-28
2022/11/12 03:02:58;;;;;;;5.10;3.20;;;;;;;;;;108677;1260;22548;-28
2022/11/12 03:05:33;;;;;;;6.00;3.80;;;;;;;;;;108670;1265;22698;-29
2022/11/12 03:08:09;;;;;;;5.70;3.60;;;;;;;;;;108667;1265;22551;-28
2022/11/12 03:10:41;;;;;;;5.80;3.60;;;;;;;;;;108681;1263;22696;-28
2022/11/12 03:13:14;;;;;;;6.00;3.80;;;;;;;;;;108768;1269;22542;-28
2022/11/12 03:15:46;;;;;;;5.90;4.00;;;;;;;;;;108770;1266;22934;-28
2022/11/12 03:18:18;;;;;;;6.50;3.70;;;;;;;;;;108782;1269;22697;-28
2022/11/12 03:20:54;;;;;;;5.30;3.30;;;;;;;;;;108660;1269;22700;-28
2022/11/12 03:23:27;;;;;;;5.60;3.40;;;;;;;;;;108652;1265;22551;-28
2022/11/12 03:26:01;;;;;;;6.40;3.70;;;;;;;;;;108538;1270;22560;-28
2022/11/12 03:28:34;;;;;;;5.60;3.50;;;;;;;;;;108670;1265;25062;-28
2022/11/12 03:31:07;;;;;;;5.30;3.60;;;;;;;;;;108668;1262;22541;-28
2022/11/12 03:33:40;;;;;;;5.80;3.70;;;;;;;;;;108784;1269;22532;-28
2022/11/12 03:36:12;;;;;;;5.60;3.60;;;;;;;;;;108779;1269;22546;-28
2022/11/12 03:38:47;;;;;;;6.30;4.00;;;;;;;;;;108777;1269;25260;-28
2022/11/12 03:41:19;;;;;;;5.50;3.30;;;;;;;;;;108752;1269;26088;-28
2022/11/12 03:43:52;;;;;;;6.30;3.60;;;;;;;;;;108782;1263;25383;-29
2022/11/12 03:46:25;;;;;;;5.70;3.70;;;;;;;;;;108766;1263;22545;-28
2022/11/12 03:48:58;;;;;;;4.90;3.20;;;;;;;;;;108781;1269;22529;-29
2022/11/12 03:51:31;;;;;;;5.80;3.80;;;;;;;;;;108777;1262;22540;-29
2022/11/12 03:54:03;;;;;;;5.50;3.50;;;;;;;;;;108766;1263;22543;-29
2022/11/12 03:56:36;;;;;;;5.70;3.40;;;;;;;;;;108761;1265;22789;-28
2022/11/12 03:59:09;;;;;;;5.50;3.70;;;;;;;;;;108787;1264;22525;-28
2022/11/12 04:01:42;;;;;;;5.60;3.40;;;;;;;;;;108750;1264;22721;-28
2022/11/12 04:04:14;;;;;;;5.50;3.50;;;;;;;;;;108813;1269;22471;-28
2022/11/12 04:09:37;;;;;;;5.60;3.70;;;;;;;;;;108765;1266;22607;-28
2022/11/12 04:14:56;;;;;;;5.80;3.80;;;;;;;;;;108770;1269;22608;-28
2022/11/12 04:23:10;;;;;;;6.70;3.70;;;;;;;;;;108764;1269;22534;-29
2022/11/12 04:28:34;;;;;;;5.90;3.30;;;;;;;;;;108764;1269;24208;-29
2022/11/12 04:31:07;;;;;;;5.40;3.40;;;;;;;;;;108784;1269;25936;-28
2022/11/12 04:33:40;;;;;;;6.10;4.10;;;;;;;;;;108751;1264;22558;-28
2022/11/12 04:36:13;;;;;;;6.00;3.70;;;;;;;;;;108793;1269;22573;-28
2022/11/12 04:38:46;;;;;;;6.00;4.00;;;;;;;;;;108811;1269;22548;-28
2022/11/12 04:47:03;;;;;;;5.80;4.00;;;;;;;;;;108638;1269;22581;-28
2022/11/12 04:49:36;;;;;;;6.40;3.80;;;;;;;;;;108647;1271;22549;-28
2022/11/12 04:52:15;;;;;;;6.10;3.60;;;;;;;;;;108640;1271;25407;-28
2022/11/12 04:54:48;;;;;;;6.30;3.80;;;;;;;;;;108769;1269;25219;-28
2022/11/12 04:57:20;;;;;;;6.60;3.90;;;;;;;;;;108745;1268;25383;-28
2022/11/12 04:59:53;;;;;;;5.60;3.70;;;;;;;;;;108727;1264;22537;-28
2022/11/12 05:02:25;;;;;;;5.40;3.80;;;;;;;;;;108719;1263;22570;-28
2022/11/12 05:04:58;;;;;;;5.90;3.60;;;;;;;;;;108649;1271;22525;-28
2022/11/12 05:07:30;;;;;;;6.10;3.90;;;;;;;;;;108645;1270;22552;-29
2022/11/12 05:10:03;;;;;;;6.20;4.00;;;;;;;;;;108645;1270;23727;-29
2022/11/12 05:12:34;;;;;;;;;;;;;;;;;;108603;1264;22521;-28
2022/11/12 05:15:10;;;;;;;6.70;3.80;;;;;;;;;;108781;1269;22537;-28
2022/11/12 05:17:47;;;;;;;5.60;3.80;;;;;;;;;;108771;1269;22582;-28
2022/11/12 05:20:20;;;;;;;6.20;4.10;;;;;;;;;;108817;1269;22631;-28
2022/11/12 05:22:52;;;;;;;6.50;3.80;;;;;;;;;;108718;1269;22557;-28
2022/11/12 05:25:24;;;;;;;6.30;4.20;;;;;;;;;;108637;1268;22512;-28
2022/11/12 05:27:57;;;;;;;5.70;3.70;;;;;;;;;;108689;1263;22675;-28
2022/11/12 05:30:29;;;;;;;5.90;4.00;;;;;;;;;;108633;1271;22688;-28
2022/11/12 05:33:02;;;;;;;6.20;4.10;;;;;;;;;;108667;1271;22488;-28
2022/11/12 05:35:39;;;;;;;6.10;4.00;;;;;;;;;;108792;1269;22546;-28
2022/11/12 05:38:12;;;;;;;6.50;4.00;;;;;;;;;;108787;1269;22541;-28
2022/11/12 05:40:47;;;;;;;;;;;;;;;;;;108796;1269;25244;-28
2022/11/12 05:43:20;;;;;;;6.30;4.00;;;;;;;;;;108743;1269;22541;-28
2022/11/12 05:45:52;;;;;;;6.30;4.40;;;;;;;;;;108800;1263;22561;-28
2022/11/12 05:48:24;;;;;;;5.90;4.30;;;;;;;;;;108768;1262;22598;-28
2022/11/12 05:50:57;;;;;;;7.30;4.20;;;;;;;;;;108816;1269;22541;-28
2022/11/12 05:53:30;;;;;;;5.90;4.20;;;;;;;;;;108782;1269;25338;-28
2022/11/12 05:56:07;;;;;;;6.90;4.30;;;;;;;;;;108955;1268;25389;-28
2022/11/12 05:58:40;;;;;;;6.60;4.40;;;;;;;;;;108913;1263;25393;-28
2022/11/12 06:01:16;;;;;;;6.60;4.30;;;;;;;;;;108815;1269;22528;-28
2022/11/12 06:03:48;;;;;;;6.20;4.20;;;;;;;;;;108737;1264;22559;-28
2022/11/12 06:06:21;;;;;;;6.80;4.60;;;;;;;;;;108769;1269;24012;-28
2022/11/12 06:08:53;;;;;;;6.20;4.20;;;;;;;;;;108761;1269;25437;-28
2022/11/12 06:11:25;;;;;;;6.80;4.50;;;;;;;;;;108773;1269;23859;-28
2022/11/12 06:13:59;;;;;;;6.30;4.40;;;;;;;;;;108742;1266;22552;-28
2022/11/12 06:16:32;;;;;;;6.40;4.50;;;;;;;;;;108793;1269;22890;-28
2022/11/12 06:19:05;;;;;;;5.80;4.10;;;;;;;;;;108779;1265;22550;-28
2022/11/12 06:21:39;;;;;;;6.60;4.50;;;;;;;;;;108806;1263;22686;-28
2022/11/12 06:24:12;;;;;;;6.60;4.50;;;;;;;;;;108622;1266;22537;-28
2022/11/12 06:26:44;;;;;;;7.10;4.20;;;;;;;;;;108756;1264;24838;-28
2022/11/12 06:29:20;;;;;;;6.50;4.60;;;;;;;;;;108771;1263;22623;-28
2022/11/12 06:31:57;;;;;;;6.60;4.50;;;;;;;;;;108775;1266;22616;-28
2022/11/12 06:34:29;;;;;;;6.30;4.20;;;;;;;;;;108862;1266;22580;-28
2022/11/12 06:37:01;;;;;;;6.40;4.10;;;;;;;;;;108871;1269;22533;-28
2022/11/12 06:39:34;;;;;;;6.50;4.10;;;;;;;;;;108757;1262;22476;-28
2022/11/12 06:42:09;;;;;;;6.40;4.20;;;;;;;;;;108797;1269;21873;-28
2022/11/12 06:44:41;;;;;;;6.70;4.40;;;;;;;;;;108717;1266;22559;-28
2022/11/12 06:47:14;;;;;;;6.30;4.00;;;;;;;;;;108675;1265;22258;-28
2022/11/12 06:49:49;;;;;;;6.20;4.20;;;;;;;;;;108674;1264;22546;-28
2022/11/12 06:52:22;;;;;;;6.10;4.40;;;;;;;;;;108665;1264;22938;-28
2022/11/12 06:54:54;;;;;;;6.00;4.30;;;;;;;;;;108649;1266;22545;-28
2022/11/12 06:57:26;;;;;;;6.60;4.20;;;;;;;;;;108774;1269;22680;-28
2022/11/12 06:59:59;;;;;;;6.80;4.10;;;;;;;;;;108766;1264;23844;-28
2022/11/12 07:02:31;;;;;;;6.10;4.20;;;;;;;;;;108753;1263;25371;-28
2022/11/12 07:05:04;;;;;;;6.70;4.50;;;;;;;;;;108710;1264;26050;-29
2022/11/12 07:07:41;;;;;;;6.10;4.50;;;;;;;;;;108675;1268;24036;-29
2022/11/12 07:10:13;;;;;;;6.10;4.30;;;;;;;;;;108683;1265;23857;-28
2022/11/12 07:12:47;;;;;;;6.70;4.10;;;;;;;;;;108719;1265;22529;-28
2022/11/12 07:15:19;;;;;;;6.70;4.60;;;;;;;;;;108638;1256;22545;-28
2022/11/12 07:17:51;;;;;;;6.20;4.20;;;;;;;;;;108743;1265;22570;-28
2022/11/12 07:20:24;;;;;;;6.60;4.50;;;;;;;;;;108734;1266;22114;-28
2022/11/12 07:23:02;;;;;;;6.40;4.30;;;;;;;;;;108767;1264;22547;-28
2022/11/12 07:25:35;;;;;;;6.60;4.60;;;;;;;;;;108731;1264;22571;-28
2022/11/12 07:28:07;;;;;;;7.10;4.70;;;;;;;;;;108695;1267;22782;-28
2022/11/12 07:30:39;;;;;;;7.40;4.80;;;;;;;;;;108638;1266;22623;-28
2022/11/12 07:33:14;;;;;;;7.50;4.30;;;;;;;;;;108699;1264;22549;-31
2022/11/12 07:35:48;;;;;;;6.50;4.70;;;;;;;;;;108666;1265;22576;-30
2022/11/12 07:38:24;;;;;;;6.40;4.60;;;;;;;;;;108743;1266;22559;-30
2022/11/12 07:41:02;;;;;;;7.50;4.90;;;;;;;;;;108782;1266;22552;-29
2022/11/12 07:43:37;;;;;;;7.00;4.60;;;;;;;;;;108784;1264;22550;-29
2022/11/12 07:46:12;;;;;;;6.90;4.80;;;;;;;;;;108815;1263;22538;-30
2022/11/12 07:48:46;;;;;;;7.30;4.90;;;;;;;;;;108886;1264;22560;-29
2022/11/12 07:51:21;;;;;;;7.60;5.70;;;;;;;;;;108933;1259;26130;-29
2022/11/12 07:53:58;;;;;;;7.60;5.30;;;;;;;;;;108906;1263;22519;-29
2022/11/12 07:56:31;;;;;;;8.00;5.40;;;;;;;;;;108850;1262;22511;-31
2022/11/12 07:59:02;;;;;;;;;;;;;;;;;;108808;1266;22533;-31
2022/11/12 08:01:37;;;;;;;7.50;5.50;;;;;;;;;;108818;1267;22560;-31
2022/11/12 08:04:12;;;;;;;7.70;5.80;;;;;;;;;;108825;1263;25933;-31
2022/11/12 08:06:49;;;;;;;8.30;6.00;;;;;;;;;;108800;1263;22580;-30
2022/11/12 08:09:22;;;;;;;9.20;6.70;;;;;;;;;;108674;1264;22552;-29
2022/11/12 08:11:55;;;;;;;8.60;6.50;;;;;;;;;;108804;1260;23808;-29
2022/11/12 08:14:27;;;;;;;7.60;6.20;;;;;;;;;;108863;1263;22579;-29
2022/11/12 08:17:00;;;;;;;8.50;6.40;;;;;;;;;;108763;1260;22554;-30
2022/11/12 08:19:31;;;;;;;;;;;;;;;;;;108710;1266;22523;-31
2022/11/12 08:22:05;;;;;;;9.90;6.80;;;;;;;;;;108772;1256;22508;-30
2022/11/12 08:24:37;;;;;;;8.60;6.40;;;;;;;;;;108828;1266;22541;-30
2022/11/12 08:27:10;;;;;;;8.70;6.40;;;;;;;;;;108772;1264;22525;-30
2022/11/12 08:29:43;;;;;;;8.20;6.20;;;;;;;;;;108904;1262;22563;-30
2022/11/12 08:32:18;;;;;;;8.50;6.40;;;;;;;;;;108791;1262;22485;-29
2022/11/12 08:34:50;;;;;;;8.20;6.00;;;;;;;;;;108867;1260;23003;-30
2022/11/12 08:37:25;;;;;;;8.00;6.40;;;;;;;;;;108703;1264;22545;-30
2022/11/12 08:39:57;;;;;;;8.00;6.30;;;;;;;;;;108716;1266;22501;-29
2022/11/12 08:42:32;;;;;;;8.10;6.50;;;;;;;;;;108669;1264;22627;-27
2022/11/12 08:45:07;;;;;;;9.20;6.80;;;;;;;;;;108706;1263;24183;-28
2022/11/12 08:47:41;;;;;;;7.90;6.40;;;;;;;;;;108742;1260;22550;-28
2022/11/12 08:50:16;;;;;;;7.70;6.10;;;;;;;;;;108854;1262;22537;-28
2022/11/12 08:52:49;;;;;;;8.30;6.00;;;;;;;;;;108371;1265;336911;-28
2022/11/12 08:55:22;;;;;;;8.20;6.10;;;;;;;;;;108798;1263;22553;-28
2022/11/12 08:57:54;;;;;;;8.50;6.00;;;;;;;;;;108748;1267;23847;-29
2022/11/12 09:00:27;;;;;;;8.10;5.70;;;;;;;;;;108670;1264;24010;-29
2022/11/12 09:03:01;;;;;;;8.60;6.60;;;;;;;;;;108589;1259;23709;-29
2022/11/12 09:05:35;;;;;;;8.50;6.30;;;;;;;;;;108570;1265;22663;-29
2022/11/12 09:08:16;;;;;;;8.30;6.30;;;;;;;;;;108666;1266;22709;-29
2022/11/12 09:10:55;;;;;;;8.30;6.40;;;;;;;;;;108803;1266;22590;-29
2022/11/12 09:13:30;;;;;;;8.60;6.20;;;;;;;;;;108663;1266;22562;-29
2022/11/12 09:16:09;;;;;;;9.00;6.50;;;;;;;;;;108711;1266;22568;-29
2022/11/12 09:18:42;;;;;;;8.90;6.80;;;;;;;;;;108707;1266;22568;-29
2022/11/12 09:21:16;;;;;;;8.10;6.80;;;;;;;;;;108689;1264;22682;-29
2022/11/12 09:23:48;;;;;;;8.70;6.60;;;;;;;;;;108718;1256;22643;-29
2022/11/12 09:26:21;;;;;;;8.80;6.90;;;;;;;;;;108704;1264;22577;-28
2022/11/12 09:28:56;;;;;;;8.30;6.60;;;;;;;;;;108657;1262;22564;-28
2022/11/12 09:31:28;;;;;;;9.00;6.80;;;;;;;;;;108821;1263;22569;-28
2022/11/12 09:34:01;;;;;;;10.00;7.10;;;;;;;;;;108765;1260;22508;-28
2022/11/12 09:36:35;;;;;;;10.10;8.20;;;;;;;;;;108812;1266;25392;-27
2022/11/12 09:39:10;;;;;;;11.50;7.30;;;;;;;;;;108626;1264;22589;-27
2022/11/12 09:41:55;;;;;;;10.30;7.80;;;;;;;;;;108669;1264;25248;-28
2022/11/12 09:44:27;;;;;;;10.50;7.90;;;;;;;;;;108709;1263;22544;-27
2022/11/12 09:47:06;;;;;;;10.00;8.10;;;;;;;;;;108711;1264;22995;-28
2022/11/12 09:49:46;;;;;;;9.40;8.00;;;;;;;;;;108747;1264;25250;-29
2022/11/12 09:52:24;;;;;;;9.30;8.10;;;;;;;;;;108832;1263;25273;-28
2022/11/12 09:55:05;;;;;;;11.00;8.40;;;;;;;;;;108837;1262;22531;-28
2022/11/12 09:57:39;;;;;;;10.60;8.10;;;;;;;;;;108778;1266;22641;-29
2022/11/12 10:00:21;;;;;;;11.00;8.50;;;;;;;;;;108593;1265;22542;-29
2022/11/12 10:03:01;;;;;;;10.00;8.10;;;;;;;;;;108749;1264;22697;-29
2022/11/12 10:05:38;;;;;;;10.00;8.10;;;;;;;;;;108765;1266;22530;-29
2022/11/12 10:08:31;;;;;;;11.70;8.90;;;;;;;;;;108799;1257;22574;-28
2022/11/12 10:12:30;;;;;;;11.60;8.60;;;;;;;;;;108889;1262;22564;-28
2022/11/12 10:14:46;;;;;;;9.50;8.40;;;;;;;;;;108908;1263;22566;-29
2022/11/12 10:17:30;;;;;;;10.70;8.80;;;;;;;;;;108849;1256;22985;-28
2022/11/12 10:20:16;;;;;;;12.00;8.90;;;;;;;;;;108698;1264;23995;-29
2022/11/12 10:23:11;;;;;;;10.30;8.70;;;;;;;;;;108708;1265;22569;-29
2022/11/12 10:25:48;;;;;;;10.20;8.40;;;;;;;;;;108716;1264;22583;-28
2022/11/12 10:28:33;;;;;;;10.80;8.70;;;;;;;;;;108735;1264;25404;-29
2022/11/12 10:31:13;;;;;;;11.00;8.80;;;;;;;;;;108757;1263;23900;-29
2022/11/12 10:33:46;;;;;;;13.70;9.50;;;;;;;;;;108889;1261;22548;-28
2022/11/12 10:36:32;;;;;;;12.00;8.90;;;;;;;;;;108808;1264;24404;-29
2022/11/12 10:39:05;;;;;;;10.70;8.50;;;;;;;;;;108825;1263;22562;-29
2022/11/12 10:41:38;;;;;;;10.50;8.90;;;;;;;;;;108659;1260;25386;-29
2022/11/12 10:44:25;;;;;;;10.00;8.60;;;;;;;;;;108681;1264;22549;-29
2022/11/12 10:47:30;;;;;;;10.70;8.80;;;;;;;;;;108717;1266;22560;-31
2022/11/12 10:50:18;;;;;;;9.50;8.60;;;;;;;;;;108675;1256;22559;-31
2022/11/12 10:53:01;;;;;;;9.00;7.70;;;;;;;;;;108840;1266;25280;-30
2022/11/12 10:55:35;;;;;;;9.50;8.20;;;;;;;;;;108913;1263;22544;-31
2022/11/12 10:58:19;;;;;;;10.20;8.70;;;;;;;;;;108883;1260;22493;-27
2022/11/12 11:01:01;;;;;;;11.30;8.60;;;;;;;;;;108753;1263;22584;-28
2022/11/12 11:03:44;;;;;;;9.80;8.80;;;;;;;;;;108719;1260;22577;-28
2022/11/12 11:06:27;;;;;;;10.40;8.60;;;;;;;;;;108740;1264;22532;-28
2022/11/12 11:09:26;;;;;;;9.40;8.30;;;;;;;;;;108662;1266;24032;-27
2022/11/12 11:11:58;;;;;;;9.90;8.20;;;;;;;;;;108827;1263;23624;-27
2022/11/12 11:14:39;;;;;;;9.60;8.60;;;;;;;;;;108758;1263;22504;-27
2022/11/12 11:17:19;;;;;;;9.40;8.40;;;;;;;;;;108930;1257;22628;-27
2022/11/12 11:19:54;;;;;;;9.20;8.20;;;;;;;;;;108818;1260;22549;-28
2022/11/12 11:22:43;;;;;;;9.60;8.60;;;;;;;;;;108710;1264;25223;-30
2022/11/12 11:25:27;;;;;;;10.00;7.80;;;;;;;;;;108764;1264;22614;-30
2022/11/12 11:28:16;;;;;;;9.60;8.60;;;;;;;;;;108827;1260;22590;-29
2022/11/12 11:31:01;;;;;;;10.10;8.80;;;;;;;;;;108756;1256;22570;-30
2022/11/12 11:33:48;;;;;;;9.50;8.50;;;;;;;;;;108867;1263;22553;-30
2022/11/12 11:36:27;;;;;;;9.90;8.80;;;;;;;;;;108819;1266;22824;-31
2022/11/12 11:39:06;;;;;;;10.60;8.90;;;;;;;;;;108786;1263;22557;-30
2022/11/12 11:41:58;;;;;;;9.60;8.60;;;;;;;;;;108750;1266;22551;-30
2022/11/12 11:44:45;;;;;;;9.70;7.80;;;;;;;;;;108783;1256;22658;-30
2022/11/12 11:47:35;;;;;;;9.50;8.50;;;;;;;;;;108821;1264;23885;-30
2022/11/12 11:50:24;;;;;;;11.20;8.40;;;;;;;;;;108784;1266;22550;-29
2022/11/12 11:53:12;;;;;;;10.20;8.50;;;;;;;;;;108899;1257;22538;-30
2022/11/12 11:55:56;;;;;;;9.20;8.20;;;;;;;;;;109020;1262;22545;-29
2022/11/12 11:58:53;;;;;;;9.50;8.50;;;;;;;;;;108965;1261;22555;-29
2022/11/12 12:01:36;;;;;;;9.20;7.70;;;;;;;;;;108928;1263;22567;-29
2022/11/12 12:04:42;;;;;;;9.40;8.30;;;;;;;;;;108987;1260;22527;-28
2022/11/12 12:07:28;;;;;;;8.60;7.60;;;;;;;;;;108994;1263;22532;-28
2022/11/12 12:10:19;;;;;;;9.20;8.30;;;;;;;;;;108995;1262;22653;-27
2022/11/12 12:13:03;;;;;;;8.70;7.80;;;;;;;;;;108963;1262;23128;-27
2022/11/12 12:15:57;;;;;;;9.30;8.00;;;;;;;;;;109008;1261;25417;-28
2022/11/12 12:18:41;;;;;;;8.70;7.60;;;;;;;;;;108979;1262;25442;-27
2022/11/12 12:21:17;;;;;;;8.40;7.50;;;;;;;;;;108995;1262;22532;-28
2022/11/12 12:23:55;;;;;;;8.90;8.00;;;;;;;;;;109030;1261;22809;-28
2022/11/12 12:26:33;;;;;;;9.00;7.30;;;;;;;;;;108981;1263;25266;-28
2022/11/12 12:29:12;;;;;;;8.90;8.00;;;;;;;;;;108963;1257;22544;-27
2022/11/12 12:31:51;;;;;;;8.20;7.40;;;;;;;;;;108914;1261;23685;-27
2022/11/12 12:34:29;;;;;;;8.50;7.60;;;;;;;;;;109011;1253;22538;-28
2022/11/12 12:37:07;;;;;;;8.70;7.00;;;;;;;;;;109013;1262;22524;-28
2022/11/12 12:39:47;;;;;;;9.30;7.60;;;;;;;;;;108952;1262;22507;-27
2022/11/12 12:42:29;;;;;;;8.20;7.10;;;;;;;;;;108931;1260;22952;-28
2022/11/12 12:45:27;;;;;;;8.90;8.00;;;;;;;;;;109015;1263;25401;-27
2022/11/12 12:48:02;;;;;;;8.10;7.00;;;;;;;;;;109033;1261;22568;-27
2022/11/12 12:50:40;;;;;;;9.20;7.80;;;;;;;;;;108903;1262;22546;-27
2022/11/12 12:53:33;;;;;;;8.50;7.60;;;;;;;;;;108871;1262;22538;-27
2022/11/12 12:56:45;;;;;;;8.40;7.10;;;;;;;;;;108973;1262;25930;-27
2022/11/12 12:59:24;;;;;;;9.00;7.50;;;;;;;;;;108963;1262;22546;-27
2022/11/12 13:02:02;;;;;;;9.50;7.30;;;;;;;;;;108942;1262;25404;-27
2022/11/12 13:04:56;;;;;;;9.80;7.40;;;;;;;;;;108985;1259;22539;-28
2022/11/12 13:07:44;;;;;;;9.00;7.80;;;;;;;;;;108864;1262;22556;-27
2022/11/12 13:10:51;;;;;;;8.80;7.50;;;;;;;;;;108946;1262;22749;-27
2022/11/12 13:13:36;;;;;;;9.00;7.40;;;;;;;;;;108896;1262;22704;-27
2022/11/12 13:16:10;;;;;;;8.80;7.20;;;;;;;;;;108941;1256;25921;-27
2022/11/12 13:19:04;;;;;;;9.60;7.60;;;;;;;;;;108969;1261;22704;-27
2022/11/12 13:21:36;;;;;;;8.70;7.30;;;;;;;;;;108972;1262;22561;-28
2022/11/12 13:24:15;;;;;;;9.00;7.50;;;;;;;;;;108900;1262;22575;-28
2022/11/12 13:26:56;;;;;;;8.90;7.60;;;;;;;;;;108940;1262;22535;-28
2022/11/12 13:29:47;;;;;;;8.90;7.80;;;;;;;;;;109110;1262;22562;-29
2022/11/12 13:32:42;;;;;;;9.90;7.90;;;;;;;;;;109092;1262;22544;-28
2022/11/12 13:35:38;;;;;;;9.20;8.00;;;;;;;;;;108936;1262;22583;-28
2022/11/12 13:38:16;;;;;;;9.60;7.50;;;;;;;;;;108946;1262;22605;-29
2022/11/12 13:40:52;;;;;;;9.00;7.30;;;;;;;;;;109005;1262;25398;-29
2022/11/12 13:43:33;;;;;;;8.60;7.60;;;;;;;;;;108916;1262;22587;-29
2022/11/12 13:46:29;;;;;;;10.20;8.20;;;;;;;;;;108937;1261;23868;-29
2022/11/12 13:49:06;;;;;;;9.70;7.70;;;;;;;;;;108921;1262;25452;-28
2022/11/12 13:51:44;;;;;;;8.70;7.60;;;;;;;;;;108972;1261;22541;-29
2022/11/12 13:54:35;;;;;;;10.10;7.90;;;;;;;;;;108949;1262;22537;-28
2022/11/12 13:57:30;;;;;;;9.70;7.30;;;;;;;;;;108975;1261;22565;-28
2022/11/12 14:00:23;;;;;;;9.10;7.60;;;;;;;;;;109000;1260;23839;-29
2022/11/12 14:02:59;;;;;;;8.30;6.90;;;;;;;;;;109031;1257;24205;-28
2022/11/12 14:05:34;;;;;;;9.50;7.70;;;;;;;;;;108911;1261;22577;-28
2022/11/12 14:09:02;;;;;;;8.90;7.60;;;;;;;;;;108909;1262;22576;-29
2022/11/12 14:12:07;;;;;;;9.50;7.60;;;;;;;;;;108313;1269;22603;-27
2022/11/12 14:14:58;;;;;;;8.60;7.50;;;;;;;;;;108271;1271;22560;-27
2022/11/12 14:17:40;;;;;;;9.90;8.80;;;;;;;;;;108999;1261;22540;-27
2022/11/12 14:20:35;;;;;;;9.50;8.10;;;;;;;;;;109036;1254;22622;-27
2022/11/12 14:23:16;;;;;;;11.30;9.10;;;;;;;;;;109011;1254;24186;-28
2022/11/12 14:25:54;;;;;;;12.90;10.40;;;;;;;;;;108897;1262;25277;-27
2022/11/12 14:28:32;;;;;;;12.10;10.80;;;;;;;;;;108946;1256;22553;-29
2022/11/12 14:31:12;;;;;;;13.90;11.70;;;;;;;;;;108933;1262;22550;-29
2022/11/12 14:33:45;;;;;;;14.00;12.60;;;;;;;;;;108926;1262;23816;-29
2022/11/12 14:36:19;;;;;;;15.10;13.60;;;;;;;;;;108926;1257;23993;-29
2022/11/12 14:38:55;;;;;;;15.30;13.70;;;;;;;;;;108944;1261;22536;-29
2022/11/12 14:41:33;;;;;;;17.10;14.20;;;;;;;;;;108991;1260;24189;-30
2022/11/12 14:44:06;;;;;;;16.80;15.00;;;;;;;;;;108996;1263;22693;-30
2022/11/12 14:46:47;;;;;;;16.10;13.90;;;;;;;;;;108844;1262;23552;-30
2022/11/12 14:49:34;;;;;;;16.40;14.60;;;;;;;;;;108900;1262;24013;-29
2022/11/12 14:52:12;;;;;;;16.60;14.60;;;;;;;;;;108944;1262;25248;-30
2022/11/12 14:54:50;;;;;;;16.50;14.80;;;;;;;;;;108881;1262;25232;-30
2022/11/12 14:57:28;;;;;;;16.10;14.50;;;;;;;;;;108995;1261;23997;-30
2022/11/12 15:00:01;;;;;;;17.30;15.50;;;;;;;;;;108972;1262;22508;-30
2022/11/12 15:02:36;;;;;;;16.70;15.00;;;;;;;;;;108977;1262;22528;-30
2022/11/12 15:05:18;;;;;;;16.10;14.60;;;;;;;;;;108896;1261;22532;-30
2022/11/12 15:08:00;;;;;;;16.10;14.60;;;;;;;;;;108881;1260;22531;-30
2022/11/12 15:10:36;;;;;;;16.30;14.60;;;;;;;;;;108918;1262;22563;-29
2022/11/12 15:13:12;;;;;;;17.00;15.20;;;;;;;;;;108910;1262;22599;-30
2022/11/12 15:15:55;;;;;;;16.40;14.70;;;;;;;;;;108930;1256;22563;-30
2022/11/12 15:18:32;;;;;;;16.50;14.80;;;;;;;;;;109006;1261;22496;-30
2022/11/12 15:21:15;;;;;;;15.50;13.90;;;;;;;;;;108963;1253;22536;-30
2022/11/12 15:23:52;;;;;;;15.90;14.00;;;;;;;;;;108982;1260;22544;-30
2022/11/12 15:26:36;;;;;;;15.50;14.00;;;;;;;;;;108920;1262;22642;-29
2022/11/12 15:29:26;;;;;;;15.50;13.90;;;;;;;;;;108908;1262;22611;-28
2022/11/12 15:32:03;;;;;;;16.40;14.70;;;;;;;;;;108935;1262;22547;-28
2022/11/12 15:34:47;;;;;;;15.40;13.70;;;;;;;;;;108935;1262;22525;-28
2022/11/12 15:37:27;;;;;;;16.00;14.50;;;;;;;;;;108931;1261;22650;-28
2022/11/12 15:40:03;;;;;;;15.20;13.60;;;;;;;;;;108993;1261;22656;-28
2022/11/12 15:42:43;;;;;;;15.50;13.80;;;;;;;;;;108963;1262;22723;-27
2022/11/12 15:45:18;;;;;;;15.70;14.10;;;;;;;;;;108972;1256;22553;-27
2022/11/12 15:47:51;;;;;;;15.30;13.70;;;;;;;;;;108874;1262;22543;-27